sensor_id;sensor_type;location;lat;lon;timestamp;temperature;humidity
40589;DHT22;26297;49.450;6.640;2022-07-23T00:02:12;22.50;99.90
40589;DHT22;26297;49.450;6.640;2022-07-23T00:05:15;22.50;99.90
40589;DHT22;26297;49.450;6.640;2022-07-23T00:08:19;22.50;99.90
40589;DHT22;26297;49.450;6.640;2022-07-23T00:11:22;22.40;99.90
40589;DHT22;26297;49.450;6.640;2022-07-23T00:14:25;22.40;99.90
40589;DHT22;26297;49.450;6.640;2022-07-23T00:17:28;22.30;99.90
40589;DHT22;26297;49.450;6.640;2022-07-23T00:20:32;22.20;99.90
40589;DHT22;26297;49.450;6.640;2022-07-23T00:23:35;22.10;99.90
40589;DHT22;26297;49.450;6.640;2022-07-23T00:26:39;22.00;99.90
40589;DHT22;26297;49.450;6.640;2022-07-23T00:29:41;22.00;99.90
40589;DHT22;26297;49.450;6.640;2022-07-23T00:32:56;22.00;99.90
40589;DHT22;26297;49.450;6.640;2022-07-23T00:36:00;22.00;99.90
40589;DHT22;26297;49.450;6.640;2022-07-23T00:39:03;22.00;99.90
40589;DHT22;26297;49.450;6.640;2022-07-23T00:42:07;22.00;99.90
40589;DHT22;26297;49.450;6.640;2022-07-23T00:45:10;22.10;99.90
40589;DHT22;26297;49.450;6.640;2022-07-23T00:48:13;22.20;99.90
40589;DHT22;26297;49.450;6.640;2022-07-23T00:51:17;22.30;99.90
40589;DHT22;26297;49.450;6.640;2022-07-23T00:54:23;22.30;99.90
40589;DHT22;26297;49.450;6.640;2022-07-23T00:57:26;22.30;99.90
40589;DHT22;26297;49.450;6.640;2022-07-23T01:00:30;22.30;99.90
40589;DHT22;26297;49.450;6.640;2022-07-23T01:03:33;22.20;99.90
40589;DHT22;26297;49.450;6.640;2022-07-23T01:06:38;22.20;99.90
40589;DHT22;26297;49.450;6.640;2022-07-23T01:09:42;22.10;99.90
40589;DHT22;26297;49.450;6.640;2022-07-23T01:12:45;22.10;99.90
40589;DHT22;26297;49.450;6.640;2022-07-23T01:15:49;22.10;99.90
40589;DHT22;26297;49.450;6.640;2022-07-23T01:18:52;22.10;99.90
40589;DHT22;26297;49.450;6.640;2022-07-23T01:21:56;22.00;99.90
40589;DHT22;26297;49.450;6.640;2022-07-23T01:25:00;22.00;99.90
40589;DHT22;26297;49.450;6.640;2022-07-23T01:28:03;22.00;99.90
40589;DHT22;26297;49.450;6.640;2022-07-23T01:31:06;22.10;99.90
40589;DHT22;26297;49.450;6.640;2022-07-23T01:34:10;22.10;99.90
40589;DHT22;26297;49.450;6.640;2022-07-23T01:37:13;22.00;99.90
40589;DHT22;26297;49.450;6.640;2022-07-23T01:40:16;22.00;99.90
40589;DHT22;26297;49.450;6.640;2022-07-23T01:43:19;22.00;99.90
40589;DHT22;26297;49.450;6.640;2022-07-23T01:46:23;21.90;99.90
40589;DHT22;26297;49.450;6.640;2022-07-23T01:49:26;22.00;99.90
40589;DHT22;26297;49.450;6.640;2022-07-23T01:53:07;22.00;99.90
40589;DHT22;26297;49.450;6.640;2022-07-23T01:56:58;22.00;99.90
40589;DHT22;26297;49.450;6.640;2022-07-23T02:00:02;22.00;99.90
40589;DHT22;26297;49.450;6.640;2022-07-23T02:03:06;22.00;99.90
40589;DHT22;26297;49.450;6.640;2022-07-23T02:06:09;22.00;99.90
40589;DHT22;26297;49.450;6.640;2022-07-23T02:09:12;21.80;99.90
40589;DHT22;26297;49.450;6.640;2022-07-23T02:12:15;21.80;99.90
40589;DHT22;26297;49.450;6.640;2022-07-23T02:15:19;21.80;99.90
40589;DHT22;26297;49.450;6.640;2022-07-23T02:18:22;21.70;99.90
40589;DHT22;26297;49.450;6.640;2022-07-23T02:21:25;21.70;99.90
40589;DHT22;26297;49.450;6.640;2022-07-23T02:24:29;21.60;99.90
40589;DHT22;26297;49.450;6.640;2022-07-23T02:27:32;21.60;99.90
40589;DHT22;26297;49.450;6.640;2022-07-23T02:30:35;21.60;99.90
40589;DHT22;26297;49.450;6.640;2022-07-23T02:33:39;21.50;99.90
40589;DHT22;26297;49.450;6.640;2022-07-23T02:36:42;21.50;99.90
40589;DHT22;26297;49.450;6.640;2022-07-23T02:39:45;21.50;99.90
40589;DHT22;26297;49.450;6.640;2022-07-23T02:42:48;21.50;99.90
40589;DHT22;26297;49.450;6.640;2022-07-23T02:45:51;21.50;99.90
40589;DHT22;26297;49.450;6.640;2022-07-23T02:48:54;21.50;99.90
40589;DHT22;26297;49.450;6.640;2022-07-23T02:51:57;21.50;99.90
40589;DHT22;26297;49.450;6.640;2022-07-23T02:55:00;21.50;99.90
40589;DHT22;26297;49.450;6.640;2022-07-23T02:58:04;21.50;99.90
40589;DHT22;26297;49.450;6.640;2022-07-23T03:01:07;21.50;99.90
40589;DHT22;26297;49.450;6.640;2022-07-23T03:04:10;21.50;99.90
40589;DHT22;26297;49.450;6.640;2022-07-23T03:07:13;21.60;99.90
40589;DHT22;26297;49.450;6.640;2022-07-23T03:10:16;21.60;99.90
40589;DHT22;26297;49.450;6.640;2022-07-23T03:13:19;21.60;99.90
40589;DHT22;26297;49.450;6.640;2022-07-23T03:16:22;21.70;99.90
40589;DHT22;26297;49.450;6.640;2022-07-23T03:19:25;21.80;99.90
40589;DHT22;26297;49.450;6.640;2022-07-23T03:22:29;21.70;99.90
40589;DHT22;26297;49.450;6.640;2022-07-23T03:25:32;21.60;99.90
40589;DHT22;26297;49.450;6.640;2022-07-23T03:28:35;21.60;99.90
40589;DHT22;26297;49.450;6.640;2022-07-23T03:31:38;21.60;99.90
40589;DHT22;26297;49.450;6.640;2022-07-23T03:34:41;21.50;99.90
40589;DHT22;26297;49.450;6.640;2022-07-23T03:37:45;21.50;99.90
40589;DHT22;26297;49.450;6.640;2022-07-23T03:40:49;21.40;99.90
40589;DHT22;26297;49.450;6.640;2022-07-23T03:43:52;21.40;99.90
40589;DHT22;26297;49.450;6.640;2022-07-23T03:46:55;21.30;99.90
40589;DHT22;26297;49.450;6.640;2022-07-23T03:49:57;21.30;99.90
40589;DHT22;26297;49.450;6.640;2022-07-23T03:53:00;21.30;99.90
40589;DHT22;26297;49.450;6.640;2022-07-23T03:56:04;21.30;99.90
40589;DHT22;26297;49.450;6.640;2022-07-23T03:59:08;21.20;99.90
40589;DHT22;26297;49.450;6.640;2022-07-23T04:02:11;21.20;99.90
40589;DHT22;26297;49.450;6.640;2022-07-23T04:05:14;21.20;99.90
40589;DHT22;26297;49.450;6.640;2022-07-23T04:08:17;21.20;99.90
40589;DHT22;26297;49.450;6.640;2022-07-23T04:11:20;21.10;99.90
40589;DHT22;26297;49.450;6.640;2022-07-23T04:14:23;21.20;99.90
40589;DHT22;26297;49.450;6.640;2022-07-23T04:17:26;21.20;99.90
40589;DHT22;26297;49.450;6.640;2022-07-23T04:20:30;21.20;99.90
40589;DHT22;26297;49.450;6.640;2022-07-23T04:23:34;21.20;99.90
40589;DHT22;26297;49.450;6.640;2022-07-23T04:26:37;21.10;99.90
40589;DHT22;26297;49.450;6.640;2022-07-23T04:29:40;21.10;99.90
40589;DHT22;26297;49.450;6.640;2022-07-23T04:32:43;21.10;99.90
40589;DHT22;26297;49.450;6.640;2022-07-23T04:35:46;21.10;99.90
40589;DHT22;26297;49.450;6.640;2022-07-23T04:38:49;21.10;99.90
40589;DHT22;26297;49.450;6.640;2022-07-23T04:41:52;21.10;99.90
40589;DHT22;26297;49.450;6.640;2022-07-23T04:44:55;21.20;99.90
40589;DHT22;26297;49.450;6.640;2022-07-23T04:47:58;21.10;99.90
40589;DHT22;26297;49.450;6.640;2022-07-23T04:51:01;21.10;99.90
40589;DHT22;26297;49.450;6.640;2022-07-23T04:54:04;21.20;99.90
40589;DHT22;26297;49.450;6.640;2022-07-23T04:57:07;21.10;99.90
40589;DHT22;26297;49.450;6.640;2022-07-23T05:00:10;21.10;99.90
40589;DHT22;26297;49.450;6.640;2022-07-23T05:03:13;21.20;99.90
40589;DHT22;26297;49.450;6.640;2022-07-23T05:06:16;21.10;99.90
40589;DHT22;26297;49.450;6.640;2022-07-23T05:09:19;21.20;99.90
40589;DHT22;26297;49.450;6.640;2022-07-23T05:12:22;21.20;99.90
40589;DHT22;26297;49.450;6.640;2022-07-23T05:15:25;21.20;99.90
40589;DHT22;26297;49.450;6.640;2022-07-23T05:18:28;21.20;99.90
40589;DHT22;26297;49.450;6.640;2022-07-23T05:21:31;21.20;99.90
40589;DHT22;26297;49.450;6.640;2022-07-23T05:24:34;21.20;99.90
40589;DHT22;26297;49.450;6.640;2022-07-23T05:27:37;21.30;99.90
40589;DHT22;26297;49.450;6.640;2022-07-23T05:30:40;21.30;99.90
40589;DHT22;26297;49.450;6.640;2022-07-23T05:33:43;21.30;99.90
40589;DHT22;26297;49.450;6.640;2022-07-23T05:36:46;21.30;99.90
40589;DHT22;26297;49.450;6.640;2022-07-23T05:39:51;21.40;99.90
40589;DHT22;26297;49.450;6.640;2022-07-23T05:42:54;21.40;99.90
40589;DHT22;26297;49.450;6.640;2022-07-23T05:45:57;21.40;99.90
40589;DHT22;26297;49.450;6.640;2022-07-23T05:49:00;21.40;99.90
40589;DHT22;26297;49.450;6.640;2022-07-23T05:52:04;21.40;99.90
40589;DHT22;26297;49.450;6.640;2022-07-23T05:55:09;21.40;99.90
40589;DHT22;26297;49.450;6.640;2022-07-23T05:58:13;21.40;99.90
40589;DHT22;26297;49.450;6.640;2022-07-23T06:01:16;21.50;99.90
40589;DHT22;26297;49.450;6.640;2022-07-23T06:04:19;21.50;99.90
40589;DHT22;26297;49.450;6.640;2022-07-23T06:07:22;21.50;99.90
40589;DHT22;26297;49.450;6.640;2022-07-23T06:10:25;21.50;99.90
40589;DHT22;26297;49.450;6.640;2022-07-23T06:13:28;21.50;99.90
40589;DHT22;26297;49.450;6.640;2022-07-23T06:16:32;21.50;99.90
40589;DHT22;26297;49.450;6.640;2022-07-23T06:19:34;21.50;99.90
40589;DHT22;26297;49.450;6.640;2022-07-23T06:22:38;21.50;99.90
40589;DHT22;26297;49.450;6.640;2022-07-23T06:25:41;21.50;99.90
40589;DHT22;26297;49.450;6.640;2022-07-23T06:28:44;21.50;99.90
40589;DHT22;26297;49.450;6.640;2022-07-23T06:31:47;21.50;99.90
40589;DHT22;26297;49.450;6.640;2022-07-23T06:34:50;21.40;99.90
40589;DHT22;26297;49.450;6.640;2022-07-23T06:37:53;21.40;99.90
40589;DHT22;26297;49.450;6.640;2022-07-23T06:40:57;21.40;99.90
40589;DHT22;26297;49.450;6.640;2022-07-23T06:44:00;21.40;99.90
40589;DHT22;26297;49.450;6.640;2022-07-23T06:47:03;21.40;99.90
40589;DHT22;26297;49.450;6.640;2022-07-23T06:50:06;21.40;99.90
40589;DHT22;26297;49.450;6.640;2022-07-23T06:53:10;21.40;99.90
40589;DHT22;26297;49.450;6.640;2022-07-23T06:56:13;21.40;99.90
40589;DHT22;26297;49.450;6.640;2022-07-23T06:59:16;21.50;99.90
40589;DHT22;26297;49.450;6.640;2022-07-23T07:02:19;21.50;99.90
40589;DHT22;26297;49.450;6.640;2022-07-23T07:05:22;21.60;99.90
40589;DHT22;26297;49.450;6.640;2022-07-23T07:08:26;21.60;99.90
40589;DHT22;26297;49.450;6.640;2022-07-23T07:11:29;21.70;99.90
40589;DHT22;26297;49.450;6.640;2022-07-23T07:14:31;21.70;99.90
40589;DHT22;26297;49.450;6.640;2022-07-23T07:17:37;21.80;99.90
40589;DHT22;26297;49.450;6.640;2022-07-23T07:20:41;21.90;99.90
40589;DHT22;26297;49.450;6.640;2022-07-23T07:23:44;21.90;99.90
40589;DHT22;26297;49.450;6.640;2022-07-23T07:26:47;22.00;99.90
40589;DHT22;26297;49.450;6.640;2022-07-23T07:29:50;22.00;99.90
40589;DHT22;26297;49.450;6.640;2022-07-23T07:32:53;22.00;99.90
40589;DHT22;26297;49.450;6.640;2022-07-23T07:35:56;22.00;99.90
40589;DHT22;26297;49.450;6.640;2022-07-23T07:38:59;22.00;99.90
40589;DHT22;26297;49.450;6.640;2022-07-23T07:42:02;22.00;99.90
40589;DHT22;26297;49.450;6.640;2022-07-23T07:45:06;22.00;99.90
40589;DHT22;26297;49.450;6.640;2022-07-23T07:48:09;22.00;99.90
40589;DHT22;26297;49.450;6.640;2022-07-23T07:51:12;22.00;99.90
40589;DHT22;26297;49.450;6.640;2022-07-23T07:54:15;22.10;99.90
40589;DHT22;26297;49.450;6.640;2022-07-23T07:57:19;22.20;99.90
40589;DHT22;26297;49.450;6.640;2022-07-23T08:00:22;22.20;99.90
40589;DHT22;26297;49.450;6.640;2022-07-23T08:03:26;22.20;99.90
40589;DHT22;26297;49.450;6.640;2022-07-23T08:06:29;22.20;99.90
40589;DHT22;26297;49.450;6.640;2022-07-23T08:09:33;22.30;99.90
40589;DHT22;26297;49.450;6.640;2022-07-23T08:12:48;22.30;99.90
40589;DHT22;26297;49.450;6.640;2022-07-23T08:15:52;22.30;99.90
40589;DHT22;26297;49.450;6.640;2022-07-23T08:18:56;22.40;99.90
40589;DHT22;26297;49.450;6.640;2022-07-23T08:21:59;22.40;99.90
40589;DHT22;26297;49.450;6.640;2022-07-23T08:25:03;22.10;99.90
40589;DHT22;26297;49.450;6.640;2022-07-23T08:28:09;22.40;99.90
40589;DHT22;26297;49.450;6.640;2022-07-23T08:31:13;22.40;99.90
40589;DHT22;26297;49.450;6.640;2022-07-23T08:34:18;22.40;99.90
40589;DHT22;26297;49.450;6.640;2022-07-23T08:37:21;22.40;99.90
40589;DHT22;26297;49.450;6.640;2022-07-23T08:40:27;22.40;99.90
40589;DHT22;26297;49.450;6.640;2022-07-23T08:43:33;22.40;99.90
40589;DHT22;26297;49.450;6.640;2022-07-23T08:46:39;22.50;99.90
40589;DHT22;26297;49.450;6.640;2022-07-23T08:49:42;22.50;99.90
40589;DHT22;26297;49.450;6.640;2022-07-23T08:52:49;22.50;99.90
40589;DHT22;26297;49.450;6.640;2022-07-23T08:55:58;22.50;99.90
40589;DHT22;26297;49.450;6.640;2022-07-23T08:59:01;22.50;99.90
40589;DHT22;26297;49.450;6.640;2022-07-23T09:02:05;22.50;99.90
40589;DHT22;26297;49.450;6.640;2022-07-23T09:05:10;22.50;99.90
40589;DHT22;26297;49.450;6.640;2022-07-23T09:08:18;22.50;99.90
40589;DHT22;26297;49.450;6.640;2022-07-23T09:11:22;22.60;99.90
40589;DHT22;26297;49.450;6.640;2022-07-23T09:14:43;22.60;99.90
40589;DHT22;26297;49.450;6.640;2022-07-23T09:17:46;22.60;99.90
40589;DHT22;26297;49.450;6.640;2022-07-23T09:24:31;22.60;99.90
40589;DHT22;26297;49.450;6.640;2022-07-23T09:30:51;22.60;99.90
40589;DHT22;26297;49.450;6.640;2022-07-23T09:34:06;22.70;99.90
40589;DHT22;26297;49.450;6.640;2022-07-23T09:37:11;22.70;99.90
40589;DHT22;26297;49.450;6.640;2022-07-23T09:40:16;22.70;99.90
40589;DHT22;26297;49.450;6.640;2022-07-23T09:43:27;22.80;99.90
40589;DHT22;26297;49.450;6.640;2022-07-23T09:46:33;22.80;99.90
40589;DHT22;26297;49.450;6.640;2022-07-23T09:49:36;22.80;99.90
40589;DHT22;26297;49.450;6.640;2022-07-23T09:52:45;22.80;99.90
40589;DHT22;26297;49.450;6.640;2022-07-23T09:55:54;22.80;99.90
40589;DHT22;26297;49.450;6.640;2022-07-23T09:59:02;22.80;99.90
40589;DHT22;26297;49.450;6.640;2022-07-23T10:02:20;22.70;99.90
40589;DHT22;26297;49.450;6.640;2022-07-23T10:05:29;22.50;99.90
40589;DHT22;26297;49.450;6.640;2022-07-23T10:08:33;22.80;99.90
40589;DHT22;26297;49.450;6.640;2022-07-23T10:11:37;22.80;99.90
40589;DHT22;26297;49.450;6.640;2022-07-23T10:14:41;22.80;99.90
40589;DHT22;26297;49.450;6.640;2022-07-23T10:17:44;22.80;99.90
40589;DHT22;26297;49.450;6.640;2022-07-23T10:20:48;22.80;99.90
40589;DHT22;26297;49.450;6.640;2022-07-23T10:24:08;22.80;99.90
40589;DHT22;26297;49.450;6.640;2022-07-23T10:30:51;22.90;99.90
40589;DHT22;26297;49.450;6.640;2022-07-23T10:37:23;23.00;99.90
40589;DHT22;26297;49.450;6.640;2022-07-23T10:40:30;23.00;99.90
40589;DHT22;26297;49.450;6.640;2022-07-23T10:43:34;23.00;99.90
40589;DHT22;26297;49.450;6.640;2022-07-23T10:50:30;22.80;99.90
40589;DHT22;26297;49.450;6.640;2022-07-23T11:03:34;23.00;99.90
40589;DHT22;26297;49.450;6.640;2022-07-23T11:09:51;23.00;99.90
40589;DHT22;26297;49.450;6.640;2022-07-23T11:12:54;23.00;99.90
40589;DHT22;26297;49.450;6.640;2022-07-23T11:19:05;23.10;99.90
40589;DHT22;26297;49.450;6.640;2022-07-23T11:22:09;23.20;99.90
40589;DHT22;26297;49.450;6.640;2022-07-23T11:28:25;23.10;99.90
40589;DHT22;26297;49.450;6.640;2022-07-23T11:31:30;23.10;99.90
40589;DHT22;26297;49.450;6.640;2022-07-23T11:34:42;23.10;99.90
40589;DHT22;26297;49.450;6.640;2022-07-23T11:37:47;23.00;99.90
40589;DHT22;26297;49.450;6.640;2022-07-23T11:40:53;23.00;99.90
40589;DHT22;26297;49.450;6.640;2022-07-23T11:43:57;23.00;99.90
40589;DHT22;26297;49.450;6.640;2022-07-23T11:47:10;23.10;99.90
40589;DHT22;26297;49.450;6.640;2022-07-23T11:50:17;23.10;99.90
40589;DHT22;26297;49.450;6.640;2022-07-23T11:53:33;23.20;99.90
40589;DHT22;26297;49.450;6.640;2022-07-23T11:56:36;23.20;99.90
40589;DHT22;26297;49.450;6.640;2022-07-23T11:59:40;23.20;99.90
40589;DHT22;26297;49.450;6.640;2022-07-23T12:02:51;23.20;99.90
40589;DHT22;26297;49.450;6.640;2022-07-23T12:05:59;23.30;99.90
40589;DHT22;26297;49.450;6.640;2022-07-23T12:09:02;23.30;99.90
40589;DHT22;26297;49.450;6.640;2022-07-23T12:12:06;23.30;99.90
40589;DHT22;26297;49.450;6.640;2022-07-23T12:15:11;23.30;99.90
40589;DHT22;26297;49.450;6.640;2022-07-23T12:18:18;23.30;99.90
40589;DHT22;26297;49.450;6.640;2022-07-23T12:21:22;23.40;99.90
40589;DHT22;26297;49.450;6.640;2022-07-23T12:24:25;23.40;99.90
40589;DHT22;26297;49.450;6.640;2022-07-23T12:27:28;23.40;99.90
40589;DHT22;26297;49.450;6.640;2022-07-23T12:33:44;23.40;99.90
40589;DHT22;26297;49.450;6.640;2022-07-23T12:36:47;23.40;99.90
40589;DHT22;26297;49.450;6.640;2022-07-23T12:39:51;23.40;99.90
40589;DHT22;26297;49.450;6.640;2022-07-23T12:46:13;23.50;99.90
40589;DHT22;26297;49.450;6.640;2022-07-23T12:49:27;23.60;99.90
40589;DHT22;26297;49.450;6.640;2022-07-23T12:52:30;23.60;99.90
40589;DHT22;26297;49.450;6.640;2022-07-23T12:55:34;23.70;99.90
40589;DHT22;26297;49.450;6.640;2022-07-23T13:01:56;23.80;99.90
40589;DHT22;26297;49.450;6.640;2022-07-23T13:05:01;24.00;96.80
40589;DHT22;26297;49.450;6.640;2022-07-23T13:08:04;24.00;98.00
40589;DHT22;26297;49.450;6.640;2022-07-23T13:11:07;23.90;99.90
40589;DHT22;26297;49.450;6.640;2022-07-23T13:14:11;23.80;99.90
40589;DHT22;26297;49.450;6.640;2022-07-23T13:17:15;23.80;99.90
40589;DHT22;26297;49.450;6.640;2022-07-23T13:20:19;23.80;97.80
40589;DHT22;26297;49.450;6.640;2022-07-23T13:23:22;23.80;99.40
40589;DHT22;26297;49.450;6.640;2022-07-23T13:29:14;24.00;97.00
40589;DHT22;26297;49.450;6.640;2022-07-23T13:32:17;24.00;99.90
40589;DHT22;26297;49.450;6.640;2022-07-23T13:35:20;24.00;99.60
40589;DHT22;26297;49.450;6.640;2022-07-23T13:38:24;24.00;99.90
40589;DHT22;26297;49.450;6.640;2022-07-23T13:41:27;24.10;95.50
40589;DHT22;26297;49.450;6.640;2022-07-23T13:44:31;24.10;97.10
40589;DHT22;26297;49.450;6.640;2022-07-23T13:47:34;24.20;97.00
40589;DHT22;26297;49.450;6.640;2022-07-23T13:50:38;24.20;97.90
40589;DHT22;26297;49.450;6.640;2022-07-23T13:53:41;24.10;99.90
40589;DHT22;26297;49.450;6.640;2022-07-23T13:56:45;24.00;99.90
40589;DHT22;26297;49.450;6.640;2022-07-23T13:59:48;24.00;99.90
40589;DHT22;26297;49.450;6.640;2022-07-23T14:02:51;23.90;99.90
40589;DHT22;26297;49.450;6.640;2022-07-23T14:05:54;23.90;99.90
40589;DHT22;26297;49.450;6.640;2022-07-23T14:08:57;23.90;99.90
40589;DHT22;26297;49.450;6.640;2022-07-23T14:12:00;23.90;99.90
40589;DHT22;26297;49.450;6.640;2022-07-23T14:15:05;23.80;99.90
40589;DHT22;26297;49.450;6.640;2022-07-23T14:18:09;23.80;99.90
40589;DHT22;26297;49.450;6.640;2022-07-23T14:21:13;23.80;99.90
40589;DHT22;26297;49.450;6.640;2022-07-23T14:24:16;23.80;99.90
40589;DHT22;26297;49.450;6.640;2022-07-23T14:27:19;23.80;99.90
40589;DHT22;26297;49.450;6.640;2022-07-23T14:30:23;23.80;99.90
40589;DHT22;26297;49.450;6.640;2022-07-23T14:33:27;23.80;99.90
40589;DHT22;26297;49.450;6.640;2022-07-23T14:36:30;23.80;99.90
40589;DHT22;26297;49.450;6.640;2022-07-23T14:39:33;23.80;99.90
40589;DHT22;26297;49.450;6.640;2022-07-23T14:42:36;23.80;99.90
40589;DHT22;26297;49.450;6.640;2022-07-23T14:45:39;23.70;99.90
40589;DHT22;26297;49.450;6.640;2022-07-23T14:48:42;23.80;99.90
40589;DHT22;26297;49.450;6.640;2022-07-23T14:51:45;23.80;99.90
40589;DHT22;26297;49.450;6.640;2022-07-23T14:54:49;23.70;99.90
40589;DHT22;26297;49.450;6.640;2022-07-23T14:57:52;23.80;99.90
40589;DHT22;26297;49.450;6.640;2022-07-23T15:00:55;23.80;99.90
40589;DHT22;26297;49.450;6.640;2022-07-23T15:03:58;23.80;99.90
40589;DHT22;26297;49.450;6.640;2022-07-23T15:07:02;23.80;99.90
40589;DHT22;26297;49.450;6.640;2022-07-23T15:10:05;23.90;99.90
40589;DHT22;26297;49.450;6.640;2022-07-23T15:13:09;23.90;99.90
40589;DHT22;26297;49.450;6.640;2022-07-23T15:16:12;23.80;99.90
40589;DHT22;26297;49.450;6.640;2022-07-23T15:19:16;23.80;99.90
40589;DHT22;26297;49.450;6.640;2022-07-23T15:22:19;23.80;99.90
40589;DHT22;26297;49.450;6.640;2022-07-23T15:25:22;23.80;99.90
40589;DHT22;26297;49.450;6.640;2022-07-23T15:28:26;23.80;99.90
40589;DHT22;26297;49.450;6.640;2022-07-23T15:31:29;23.80;99.90
40589;DHT22;26297;49.450;6.640;2022-07-23T15:34:32;23.70;99.90
40589;DHT22;26297;49.450;6.640;2022-07-23T15:37:35;23.70;99.90
40589;DHT22;26297;49.450;6.640;2022-07-23T15:40:38;23.70;99.90
40589;DHT22;26297;49.450;6.640;2022-07-23T15:43:42;23.80;99.90
40589;DHT22;26297;49.450;6.640;2022-07-23T15:46:45;23.90;99.90
40589;DHT22;26297;49.450;6.640;2022-07-23T15:49:48;24.00;99.90
40589;DHT22;26297;49.450;6.640;2022-07-23T15:52:51;24.10;99.90
40589;DHT22;26297;49.450;6.640;2022-07-23T15:55:54;24.00;99.90
40589;DHT22;26297;49.450;6.640;2022-07-23T15:58:57;24.10;99.90
40589;DHT22;26297;49.450;6.640;2022-07-23T16:02:00;24.10;99.90
40589;DHT22;26297;49.450;6.640;2022-07-23T16:05:04;24.10;99.90
40589;DHT22;26297;49.450;6.640;2022-07-23T16:08:07;24.10;99.90
40589;DHT22;26297;49.450;6.640;2022-07-23T16:11:11;24.20;99.90
40589;DHT22;26297;49.450;6.640;2022-07-23T16:14:14;24.10;99.90
40589;DHT22;26297;49.450;6.640;2022-07-23T16:17:17;24.10;99.90
40589;DHT22;26297;49.450;6.640;2022-07-23T16:20:21;24.20;99.90
40589;DHT22;26297;49.450;6.640;2022-07-23T16:23:24;24.20;99.90
40589;DHT22;26297;49.450;6.640;2022-07-23T16:26:27;24.20;99.90
40589;DHT22;26297;49.450;6.640;2022-07-23T16:29:30;24.20;99.90
40589;DHT22;26297;49.450;6.640;2022-07-23T16:32:33;24.20;99.90
40589;DHT22;26297;49.450;6.640;2022-07-23T16:35:37;24.20;99.90
40589;DHT22;26297;49.450;6.640;2022-07-23T16:38:40;24.10;99.90
40589;DHT22;26297;49.450;6.640;2022-07-23T16:41:44;24.10;99.90
40589;DHT22;26297;49.450;6.640;2022-07-23T16:44:47;24.10;99.90
40589;DHT22;26297;49.450;6.640;2022-07-23T16:47:50;24.00;99.90
40589;DHT22;26297;49.450;6.640;2022-07-23T16:50:54;23.90;99.90
40589;DHT22;26297;49.450;6.640;2022-07-23T16:53:57;23.80;99.90
40589;DHT22;26297;49.450;6.640;2022-07-23T16:57:01;23.80;99.90
40589;DHT22;26297;49.450;6.640;2022-07-23T17:00:05;23.90;99.90
40589;DHT22;26297;49.450;6.640;2022-07-23T17:03:11;23.90;99.90
40589;DHT22;26297;49.450;6.640;2022-07-23T17:06:14;23.90;99.90
40589;DHT22;26297;49.450;6.640;2022-07-23T17:09:17;24.00;99.90
40589;DHT22;26297;49.450;6.640;2022-07-23T17:12:20;24.00;99.90
40589;DHT22;26297;49.450;6.640;2022-07-23T17:15:23;24.00;99.90
40589;DHT22;26297;49.450;6.640;2022-07-23T17:18:27;24.00;99.90
40589;DHT22;26297;49.450;6.640;2022-07-23T17:21:30;23.90;99.90
40589;DHT22;26297;49.450;6.640;2022-07-23T17:24:33;23.90;99.90
40589;DHT22;26297;49.450;6.640;2022-07-23T17:27:37;23.80;99.90
40589;DHT22;26297;49.450;6.640;2022-07-23T17:30:40;23.80;99.90
40589;DHT22;26297;49.450;6.640;2022-07-23T17:33:43;23.80;99.90
40589;DHT22;26297;49.450;6.640;2022-07-23T17:36:47;23.90;99.90
40589;DHT22;26297;49.450;6.640;2022-07-23T17:39:51;23.90;99.90
40589;DHT22;26297;49.450;6.640;2022-07-23T17:42:54;23.90;99.90
40589;DHT22;26297;49.450;6.640;2022-07-23T17:45:57;23.90;99.90
40589;DHT22;26297;49.450;6.640;2022-07-23T17:49:01;24.00;99.90
40589;DHT22;26297;49.450;6.640;2022-07-23T17:52:04;23.80;99.90
40589;DHT22;26297;49.450;6.640;2022-07-23T17:55:11;23.70;99.90
40589;DHT22;26297;49.450;6.640;2022-07-23T17:58:17;23.70;99.90
40589;DHT22;26297;49.450;6.640;2022-07-23T18:01:21;23.60;99.90
40589;DHT22;26297;49.450;6.640;2022-07-23T18:04:25;23.60;99.90
40589;DHT22;26297;49.450;6.640;2022-07-23T18:07:28;23.60;99.90
40589;DHT22;26297;49.450;6.640;2022-07-23T18:10:33;23.70;99.90
40589;DHT22;26297;49.450;6.640;2022-07-23T18:13:40;23.70;99.90
40589;DHT22;26297;49.450;6.640;2022-07-23T18:16:55;22.70;99.90
40589;DHT22;26297;49.450;6.640;2022-07-23T18:19:59;23.70;99.90
40589;DHT22;26297;49.450;6.640;2022-07-23T18:23:06;23.70;99.90
40589;DHT22;26297;49.450;6.640;2022-07-23T18:26:09;23.70;99.90
40589;DHT22;26297;49.450;6.640;2022-07-23T18:29:12;23.90;99.90
40589;DHT22;26297;49.450;6.640;2022-07-23T18:32:16;23.80;99.90
40589;DHT22;26297;49.450;6.640;2022-07-23T18:35:19;23.90;99.90
40589;DHT22;26297;49.450;6.640;2022-07-23T18:38:25;23.80;99.90
40589;DHT22;26297;49.450;6.640;2022-07-23T18:41:33;23.80;99.90
40589;DHT22;26297;49.450;6.640;2022-07-23T18:44:37;22.40;99.90
40589;DHT22;26297;49.450;6.640;2022-07-23T18:47:54;23.70;99.90
40589;DHT22;26297;49.450;6.640;2022-07-23T18:51:00;23.80;99.90
40589;DHT22;26297;49.450;6.640;2022-07-23T18:54:15;23.70;99.90
40589;DHT22;26297;49.450;6.640;2022-07-23T18:57:39;22.80;99.90
40589;DHT22;26297;49.450;6.640;2022-07-23T19:00:43;23.70;99.90
40589;DHT22;26297;49.450;6.640;2022-07-23T19:03:57;22.80;99.90
40589;DHT22;26297;49.450;6.640;2022-07-23T19:11:21;23.40;99.90
40589;DHT22;26297;49.450;6.640;2022-07-23T19:14:25;23.40;99.90
40589;DHT22;26297;49.450;6.640;2022-07-23T19:17:28;23.40;99.90
40589;DHT22;26297;49.450;6.640;2022-07-23T19:20:34;23.30;99.90
40589;DHT22;26297;49.450;6.640;2022-07-23T19:23:37;23.30;99.90
40589;DHT22;26297;49.450;6.640;2022-07-23T19:26:43;23.20;99.90
40589;DHT22;26297;49.450;6.640;2022-07-23T19:29:48;23.20;99.90
40589;DHT22;26297;49.450;6.640;2022-07-23T19:32:51;23.30;99.90
40589;DHT22;26297;49.450;6.640;2022-07-23T19:35:54;23.20;99.90
40589;DHT22;26297;49.450;6.640;2022-07-23T19:38:58;23.20;99.90
40589;DHT22;26297;49.450;6.640;2022-07-23T19:42:04;22.20;99.90
40589;DHT22;26297;49.450;6.640;2022-07-23T19:45:08;23.10;99.90
40589;DHT22;26297;49.450;6.640;2022-07-23T19:48:12;23.20;99.90
40589;DHT22;26297;49.450;6.640;2022-07-23T19:51:15;22.90;99.90
40589;DHT22;26297;49.450;6.640;2022-07-23T19:54:18;23.10;99.90
40589;DHT22;26297;49.450;6.640;2022-07-23T19:57:21;23.10;99.90
40589;DHT22;26297;49.450;6.640;2022-07-23T20:00:24;23.10;99.90
40589;DHT22;26297;49.450;6.640;2022-07-23T20:03:27;23.10;99.90
40589;DHT22;26297;49.450;6.640;2022-07-23T20:06:32;23.20;99.90
40589;DHT22;26297;49.450;6.640;2022-07-23T20:09:35;23.10;99.90
40589;DHT22;26297;49.450;6.640;2022-07-23T20:12:39;23.20;99.90
40589;DHT22;26297;49.450;6.640;2022-07-23T20:15:43;23.20;99.90
40589;DHT22;26297;49.450;6.640;2022-07-23T20:18:46;23.30;99.90